Terminal Aerodrome Forecast
Issued by NWS

Home | Current Version | Previous Version | Text Only | Print | Product List | Glossary On
Versions: 1 2 3 4 5 6 7 8 9 10 11 12 13 14 15 16 17 18 19 20 21 22 23 24 25 26 27 28 29 30 31 32 33 34
000
FTPA31 PHFO 200500
TAFMKK
TAF
PHMK 200539Z 2006/2106 05010G15KT P6SM VCSH SCT025 SCT045 BKN110
     FM201000 05009KT P6SM SCT025 SCT045
     FM202000 07012G18KT P6SM SCT025 SCT045
     FM210500 05008KT P6SM FEW025 SCT045=

USA.gov is the U.S. government's official web portal to all federal, state and local government web resources and services.